sensor_id;sensor_type;location;lat;lon;timestamp;temperature;humidity
21184;DHT22;18176;49.502;11.754;2022-07-21T00:01:10;24.80;93.70
21184;DHT22;18176;49.502;11.754;2022-07-21T00:05:08;24.70;94.10
21184;DHT22;18176;49.502;11.754;2022-07-21T00:09:05;24.60;95.00
21184;DHT22;18176;49.502;11.754;2022-07-21T00:13:02;24.60;95.00
21184;DHT22;18176;49.502;11.754;2022-07-21T00:16:59;24.50;95.00
21184;DHT22;18176;49.502;11.754;2022-07-21T00:20:56;24.50;95.20
21184;DHT22;18176;49.502;11.754;2022-07-21T00:24:54;24.40;95.50
21184;DHT22;18176;49.502;11.754;2022-07-21T00:28:51;24.40;95.80
21184;DHT22;18176;49.502;11.754;2022-07-21T00:32:49;24.30;96.40
21184;DHT22;18176;49.502;11.754;2022-07-21T00:36:46;24.30;96.80
21184;DHT22;18176;49.502;11.754;2022-07-21T00:40:43;24.20;97.40
21184;DHT22;18176;49.502;11.754;2022-07-21T00:44:40;24.10;97.90
21184;DHT22;18176;49.502;11.754;2022-07-21T00:48:37;24.00;98.50
21184;DHT22;18176;49.502;11.754;2022-07-21T00:52:35;23.90;99.10
21184;DHT22;18176;49.502;11.754;2022-07-21T00:56:32;23.80;99.60
21184;DHT22;18176;49.502;11.754;2022-07-21T01:00:30;23.80;99.90
21184;DHT22;18176;49.502;11.754;2022-07-21T01:04:35;23.80;99.90
21184;DHT22;18176;49.502;11.754;2022-07-21T01:08:32;23.80;99.90
21184;DHT22;18176;49.502;11.754;2022-07-21T01:12:29;23.80;99.90
21184;DHT22;18176;49.502;11.754;2022-07-21T01:16:26;23.80;99.90
21184;DHT22;18176;49.502;11.754;2022-07-21T01:20:24;23.70;99.90
21184;DHT22;18176;49.502;11.754;2022-07-21T01:24:21;23.70;99.40
21184;DHT22;18176;49.502;11.754;2022-07-21T01:28:19;23.70;99.60
21184;DHT22;18176;49.502;11.754;2022-07-21T01:32:16;23.60;99.70
21184;DHT22;18176;49.502;11.754;2022-07-21T01:36:13;23.50;99.90
21184;DHT22;18176;49.502;11.754;2022-07-21T01:40:11;23.60;99.90
21184;DHT22;18176;49.502;11.754;2022-07-21T01:44:28;23.50;99.90
21184;DHT22;18176;49.502;11.754;2022-07-21T01:48:25;23.50;99.90
21184;DHT22;18176;49.502;11.754;2022-07-21T01:52:22;23.50;99.90
21184;DHT22;18176;49.502;11.754;2022-07-21T01:56:21;23.50;99.90
21184;DHT22;18176;49.502;11.754;2022-07-21T02:00:19;23.40;99.90
21184;DHT22;18176;49.502;11.754;2022-07-21T02:04:19;23.40;99.90
21184;DHT22;18176;49.502;11.754;2022-07-21T02:08:16;23.40;99.90
21184;DHT22;18176;49.502;11.754;2022-07-21T02:12:13;23.30;99.90
21184;DHT22;18176;49.502;11.754;2022-07-21T02:16:10;23.10;99.90
21184;DHT22;18176;49.502;11.754;2022-07-21T02:20:08;23.00;99.90
21184;DHT22;18176;49.502;11.754;2022-07-21T02:24:06;23.00;99.90
21184;DHT22;18176;49.502;11.754;2022-07-21T02:28:03;22.90;99.90
21184;DHT22;18176;49.502;11.754;2022-07-21T02:32:00;22.90;99.90
21184;DHT22;18176;49.502;11.754;2022-07-21T02:35:57;22.90;99.90
21184;DHT22;18176;49.502;11.754;2022-07-21T02:39:55;22.90;99.90
21184;DHT22;18176;49.502;11.754;2022-07-21T02:43:51;22.80;99.90
21184;DHT22;18176;49.502;11.754;2022-07-21T02:47:57;22.80;99.90
21184;DHT22;18176;49.502;11.754;2022-07-21T02:51:55;22.80;99.90
21184;DHT22;18176;49.502;11.754;2022-07-21T02:55:53;22.70;99.90
21184;DHT22;18176;49.502;11.754;2022-07-21T02:59:50;22.60;99.90
21184;DHT22;18176;49.502;11.754;2022-07-21T03:03:47;22.60;99.90
21184;DHT22;18176;49.502;11.754;2022-07-21T03:07:44;22.40;99.90
21184;DHT22;18176;49.502;11.754;2022-07-21T03:11:41;22.40;99.90
21184;DHT22;18176;49.502;11.754;2022-07-21T03:15:39;22.30;99.90
21184;DHT22;18176;49.502;11.754;2022-07-21T03:19:36;22.20;99.90
21184;DHT22;18176;49.502;11.754;2022-07-21T03:23:34;22.10;99.90
21184;DHT22;18176;49.502;11.754;2022-07-21T03:27:31;22.00;99.90
21184;DHT22;18176;49.502;11.754;2022-07-21T03:31:28;22.00;99.90
21184;DHT22;18176;49.502;11.754;2022-07-21T03:35:25;21.90;99.90
21184;DHT22;18176;49.502;11.754;2022-07-21T03:39:22;21.80;99.90
21184;DHT22;18176;49.502;11.754;2022-07-21T03:43:19;21.80;99.90
21184;DHT22;18176;49.502;11.754;2022-07-21T03:47:17;21.80;99.90
21184;DHT22;18176;49.502;11.754;2022-07-21T03:51:13;21.80;99.90
21184;DHT22;18176;49.502;11.754;2022-07-21T03:55:14;21.90;99.90
21184;DHT22;18176;49.502;11.754;2022-07-21T03:59:14;21.90;99.90
21184;DHT22;18176;49.502;11.754;2022-07-21T04:03:12;21.90;99.90
21184;DHT22;18176;49.502;11.754;2022-07-21T04:07:09;21.90;99.90
21184;DHT22;18176;49.502;11.754;2022-07-21T04:11:06;21.90;99.90
21184;DHT22;18176;49.502;11.754;2022-07-21T04:15:07;21.90;99.90
21184;DHT22;18176;49.502;11.754;2022-07-21T04:19:06;21.90;99.90
21184;DHT22;18176;49.502;11.754;2022-07-21T04:23:03;21.90;99.90
21184;DHT22;18176;49.502;11.754;2022-07-21T04:27:01;21.90;99.90
21184;DHT22;18176;49.502;11.754;2022-07-21T04:30:59;21.90;99.90
21184;DHT22;18176;49.502;11.754;2022-07-21T04:34:56;21.90;99.90
21184;DHT22;18176;49.502;11.754;2022-07-21T04:38:53;22.00;99.90
21184;DHT22;18176;49.502;11.754;2022-07-21T04:42:51;22.00;99.90
21184;DHT22;18176;49.502;11.754;2022-07-21T04:46:48;22.10;99.90
21184;DHT22;18176;49.502;11.754;2022-07-21T04:50:45;21.90;99.90
21184;DHT22;18176;49.502;11.754;2022-07-21T04:54:43;21.80;99.90
21184;DHT22;18176;49.502;11.754;2022-07-21T04:58:40;21.70;99.90
21184;DHT22;18176;49.502;11.754;2022-07-21T05:02:37;21.60;99.90
21184;DHT22;18176;49.502;11.754;2022-07-21T05:06:34;21.50;99.90
21184;DHT22;18176;49.502;11.754;2022-07-21T05:10:31;21.40;99.90
21184;DHT22;18176;49.502;11.754;2022-07-21T05:14:28;21.50;99.90
21184;DHT22;18176;49.502;11.754;2022-07-21T05:18:25;21.40;99.90
21184;DHT22;18176;49.502;11.754;2022-07-21T05:22:22;21.40;99.90
21184;DHT22;18176;49.502;11.754;2022-07-21T05:26:20;21.40;99.90
21184;DHT22;18176;49.502;11.754;2022-07-21T05:30:17;21.30;99.90
21184;DHT22;18176;49.502;11.754;2022-07-21T05:34:14;21.40;99.90
21184;DHT22;18176;49.502;11.754;2022-07-21T05:38:14;21.50;99.90
21184;DHT22;18176;49.502;11.754;2022-07-21T05:42:11;21.50;99.90
21184;DHT22;18176;49.502;11.754;2022-07-21T05:46:08;21.60;99.90
21184;DHT22;18176;49.502;11.754;2022-07-21T05:50:06;21.60;99.90
21184;DHT22;18176;49.502;11.754;2022-07-21T05:54:03;21.50;99.90
21184;DHT22;18176;49.502;11.754;2022-07-21T05:58:01;21.60;99.90
21184;DHT22;18176;49.502;11.754;2022-07-21T06:02:05;21.50;99.90
21184;DHT22;18176;49.502;11.754;2022-07-21T06:06:03;21.50;99.90
21184;DHT22;18176;49.502;11.754;2022-07-21T06:10:01;21.40;99.90
21184;DHT22;18176;49.502;11.754;2022-07-21T06:13:58;21.30;99.90
21184;DHT22;18176;49.502;11.754;2022-07-21T06:17:55;21.20;99.90
21184;DHT22;18176;49.502;11.754;2022-07-21T06:21:52;21.10;99.90
21184;DHT22;18176;49.502;11.754;2022-07-21T06:25:51;21.10;99.90
21184;DHT22;18176;49.502;11.754;2022-07-21T06:29:48;20.90;99.90
21184;DHT22;18176;49.502;11.754;2022-07-21T06:33:45;20.80;99.90
21184;DHT22;18176;49.502;11.754;2022-07-21T06:37:46;20.80;99.90
21184;DHT22;18176;49.502;11.754;2022-07-21T06:41:43;20.70;99.90
21184;DHT22;18176;49.502;11.754;2022-07-21T06:45:42;20.60;99.90
21184;DHT22;18176;49.502;11.754;2022-07-21T06:49:39;20.60;99.90
21184;DHT22;18176;49.502;11.754;2022-07-21T06:53:36;20.60;99.90
21184;DHT22;18176;49.502;11.754;2022-07-21T06:57:34;20.60;99.90
21184;DHT22;18176;49.502;11.754;2022-07-21T07:01:32;20.60;99.90
21184;DHT22;18176;49.502;11.754;2022-07-21T07:05:31;20.20;99.90
21184;DHT22;18176;49.502;11.754;2022-07-21T07:09:28;19.90;99.90
21184;DHT22;18176;49.502;11.754;2022-07-21T07:13:26;19.60;99.90
21184;DHT22;18176;49.502;11.754;2022-07-21T07:17:43;19.40;99.90
21184;DHT22;18176;49.502;11.754;2022-07-21T07:21:40;19.30;99.90
21184;DHT22;18176;49.502;11.754;2022-07-21T07:25:37;19.30;99.90
21184;DHT22;18176;49.502;11.754;2022-07-21T07:29:35;19.30;99.90
21184;DHT22;18176;49.502;11.754;2022-07-21T07:33:32;19.50;99.90
21184;DHT22;18176;49.502;11.754;2022-07-21T07:37:29;19.60;99.90
21184;DHT22;18176;49.502;11.754;2022-07-21T07:41:26;19.60;99.90
21184;DHT22;18176;49.502;11.754;2022-07-21T07:45:26;19.50;99.90
21184;DHT22;18176;49.502;11.754;2022-07-21T07:49:23;19.50;99.90
21184;DHT22;18176;49.502;11.754;2022-07-21T07:53:20;19.40;99.90
21184;DHT22;18176;49.502;11.754;2022-07-21T07:57:17;19.40;99.90
21184;DHT22;18176;49.502;11.754;2022-07-21T08:01:14;19.40;99.90
21184;DHT22;18176;49.502;11.754;2022-07-21T08:05:13;19.40;99.90
21184;DHT22;18176;49.502;11.754;2022-07-21T08:09:10;19.60;99.90
21184;DHT22;18176;49.502;11.754;2022-07-21T08:13:07;19.80;99.90
21184;DHT22;18176;49.502;11.754;2022-07-21T08:17:06;19.90;99.90
21184;DHT22;18176;49.502;11.754;2022-07-21T08:21:03;19.90;99.90
21184;DHT22;18176;49.502;11.754;2022-07-21T08:25:00;19.90;99.90
21184;DHT22;18176;49.502;11.754;2022-07-21T08:28:57;20.00;99.90
21184;DHT22;18176;49.502;11.754;2022-07-21T08:32:55;20.20;99.90
21184;DHT22;18176;49.502;11.754;2022-07-21T08:36:52;20.50;99.90
21184;DHT22;18176;49.502;11.754;2022-07-21T08:40:49;20.60;99.90
21184;DHT22;18176;49.502;11.754;2022-07-21T08:44:46;20.60;99.90
21184;DHT22;18176;49.502;11.754;2022-07-21T08:48:43;20.50;99.90
21184;DHT22;18176;49.502;11.754;2022-07-21T08:52:40;20.40;99.90
21184;DHT22;18176;49.502;11.754;2022-07-21T08:56:38;20.40;99.90
21184;DHT22;18176;49.502;11.754;2022-07-21T09:00:36;20.20;99.90
21184;DHT22;18176;49.502;11.754;2022-07-21T09:04:36;20.40;99.90
21184;DHT22;18176;49.502;11.754;2022-07-21T09:08:45;20.40;99.90
21184;DHT22;18176;49.502;11.754;2022-07-21T09:12:57;20.20;99.90
21184;DHT22;18176;49.502;11.754;2022-07-21T09:17:05;20.00;99.90
21184;DHT22;18176;49.502;11.754;2022-07-21T09:21:04;20.10;99.90
21184;DHT22;18176;49.502;11.754;2022-07-21T09:25:03;20.10;99.90
21184;DHT22;18176;49.502;11.754;2022-07-21T09:29:09;20.10;99.90
21184;DHT22;18176;49.502;11.754;2022-07-21T09:33:28;20.10;99.90
21184;DHT22;18176;49.502;11.754;2022-07-21T09:37:31;20.50;99.90
21184;DHT22;18176;49.502;11.754;2022-07-21T09:41:28;20.90;99.90
21184;DHT22;18176;49.502;11.754;2022-07-21T09:45:26;21.00;99.90
21184;DHT22;18176;49.502;11.754;2022-07-21T09:49:31;21.00;99.90
21184;DHT22;18176;49.502;11.754;2022-07-21T09:57:48;20.90;99.90
21184;DHT22;18176;49.502;11.754;2022-07-21T10:01:46;20.60;99.90
21184;DHT22;18176;49.502;11.754;2022-07-21T10:05:47;20.60;99.90
21184;DHT22;18176;49.502;11.754;2022-07-21T10:09:47;20.70;99.90
21184;DHT22;18176;49.502;11.754;2022-07-21T10:13:46;20.70;99.90
21184;DHT22;18176;49.502;11.754;2022-07-21T10:17:44;20.90;99.90
21184;DHT22;18176;49.502;11.754;2022-07-21T10:26:12;21.30;99.90
21184;DHT22;18176;49.502;11.754;2022-07-21T10:30:10;21.30;99.90
21184;DHT22;18176;49.502;11.754;2022-07-21T10:34:07;21.40;99.90
21184;DHT22;18176;49.502;11.754;2022-07-21T10:38:04;21.60;99.90
21184;DHT22;18176;49.502;11.754;2022-07-21T10:42:14;21.80;99.90
21184;DHT22;18176;49.502;11.754;2022-07-21T10:46:32;22.60;99.90
21184;DHT22;18176;49.502;11.754;2022-07-21T10:50:33;23.40;99.90
21184;DHT22;18176;49.502;11.754;2022-07-21T10:54:35;23.70;99.90
21184;DHT22;18176;49.502;11.754;2022-07-21T10:58:42;23.70;99.90
21184;DHT22;18176;49.502;11.754;2022-07-21T11:02:39;23.50;99.90
21184;DHT22;18176;49.502;11.754;2022-07-21T11:06:39;23.30;99.90
21184;DHT22;18176;49.502;11.754;2022-07-21T11:10:39;23.00;99.90
21184;DHT22;18176;49.502;11.754;2022-07-21T11:14:44;22.90;99.90
21184;DHT22;18176;49.502;11.754;2022-07-21T11:18:46;22.80;99.90
21184;DHT22;18176;49.502;11.754;2022-07-21T11:22:52;23.40;99.90
21184;DHT22;18176;49.502;11.754;2022-07-21T11:27:00;24.60;99.90
21184;DHT22;18176;49.502;11.754;2022-07-21T11:31:15;25.80;99.90
21184;DHT22;18176;49.502;11.754;2022-07-21T11:35:14;28.00;99.90
21184;DHT22;18176;49.502;11.754;2022-07-21T11:39:14;29.00;99.90
21184;DHT22;18176;49.502;11.754;2022-07-21T11:43:12;29.10;99.90
21184;DHT22;18176;49.502;11.754;2022-07-21T11:47:14;29.50;99.90
21184;DHT22;18176;49.502;11.754;2022-07-21T11:51:11;30.00;99.90
21184;DHT22;18176;49.502;11.754;2022-07-21T11:55:10;30.20;99.90
21184;DHT22;18176;49.502;11.754;2022-07-21T11:59:10;30.80;99.90
21184;DHT22;18176;49.502;11.754;2022-07-21T12:03:07;31.70;99.90
21184;DHT22;18176;49.502;11.754;2022-07-21T12:07:19;31.20;99.90
21184;DHT22;18176;49.502;11.754;2022-07-21T12:11:19;29.30;99.90
21184;DHT22;18176;49.502;11.754;2022-07-21T12:15:17;28.00;99.90
21184;DHT22;18176;49.502;11.754;2022-07-21T12:19:17;27.30;99.90
21184;DHT22;18176;49.502;11.754;2022-07-21T12:23:29;26.80;99.90
21184;DHT22;18176;49.502;11.754;2022-07-21T12:27:27;26.20;99.90
21184;DHT22;18176;49.502;11.754;2022-07-21T12:31:24;25.70;99.90
21184;DHT22;18176;49.502;11.754;2022-07-21T12:35:27;26.50;99.90
21184;DHT22;18176;49.502;11.754;2022-07-21T12:39:28;28.50;99.90
21184;DHT22;18176;49.502;11.754;2022-07-21T12:43:59;29.70;99.90
21184;DHT22;18176;49.502;11.754;2022-07-21T12:48:11;30.50;99.90
21184;DHT22;18176;49.502;11.754;2022-07-21T12:52:11;31.20;99.90
21184;DHT22;18176;49.502;11.754;2022-07-21T12:56:09;32.00;98.60
21184;DHT22;18176;49.502;11.754;2022-07-21T13:00:09;32.30;97.80
21184;DHT22;18176;49.502;11.754;2022-07-21T13:04:06;32.40;97.20
21184;DHT22;18176;49.502;11.754;2022-07-21T13:08:04;32.80;97.20
21184;DHT22;18176;49.502;11.754;2022-07-21T13:12:01;32.70;96.70
21184;DHT22;18176;49.502;11.754;2022-07-21T13:15:58;32.60;95.50
21184;DHT22;18176;49.502;11.754;2022-07-21T13:19:56;33.10;95.40
21184;DHT22;18176;49.502;11.754;2022-07-21T13:24:00;33.80;96.10
21184;DHT22;18176;49.502;11.754;2022-07-21T13:27:59;33.80;96.00
21184;DHT22;18176;49.502;11.754;2022-07-21T13:31:56;33.90;95.40
21184;DHT22;18176;49.502;11.754;2022-07-21T13:35:53;33.00;95.60
21184;DHT22;18176;49.502;11.754;2022-07-21T13:39:50;32.30;95.80
21184;DHT22;18176;49.502;11.754;2022-07-21T13:44:07;31.40;96.50
21184;DHT22;18176;49.502;11.754;2022-07-21T13:48:04;30.70;98.70
21184;DHT22;18176;49.502;11.754;2022-07-21T13:52:01;29.40;99.80
21184;DHT22;18176;49.502;11.754;2022-07-21T13:55:58;28.40;99.90
21184;DHT22;18176;49.502;11.754;2022-07-21T13:59:55;27.90;99.90
21184;DHT22;18176;49.502;11.754;2022-07-21T14:03:52;28.10;99.90
21184;DHT22;18176;49.502;11.754;2022-07-21T14:07:50;28.40;99.90
21184;DHT22;18176;49.502;11.754;2022-07-21T14:11:48;28.50;99.90
21184;DHT22;18176;49.502;11.754;2022-07-21T14:15:45;28.20;99.90
21184;DHT22;18176;49.502;11.754;2022-07-21T14:19:44;28.80;99.90
21184;DHT22;18176;49.502;11.754;2022-07-21T14:23:43;30.10;99.80
21184;DHT22;18176;49.502;11.754;2022-07-21T14:27:40;30.50;98.90
21184;DHT22;18176;49.502;11.754;2022-07-21T14:31:39;30.80;97.90
21184;DHT22;18176;49.502;11.754;2022-07-21T14:35:36;31.00;97.00
21184;DHT22;18176;49.502;11.754;2022-07-21T14:39:36;30.90;96.70
21184;DHT22;18176;49.502;11.754;2022-07-21T14:43:33;30.90;93.20
21184;DHT22;18176;49.502;11.754;2022-07-21T14:47:30;31.30;91.60
21184;DHT22;18176;49.502;11.754;2022-07-21T14:51:27;32.40;91.00
21184;DHT22;18176;49.502;11.754;2022-07-21T14:55:25;33.40;82.20
21184;DHT22;18176;49.502;11.754;2022-07-21T14:59:25;35.40;75.30
21184;DHT22;18176;49.502;11.754;2022-07-21T15:03:22;36.40;69.10
21184;DHT22;18176;49.502;11.754;2022-07-21T15:07:19;35.00;63.00
21184;DHT22;18176;49.502;11.754;2022-07-21T15:11:16;34.10;63.00
21184;DHT22;18176;49.502;11.754;2022-07-21T15:15:14;33.20;64.70
21184;DHT22;18176;49.502;11.754;2022-07-21T15:19:11;32.80;63.70
21184;DHT22;18176;49.502;11.754;2022-07-21T15:23:08;32.90;63.40
21184;DHT22;18176;49.502;11.754;2022-07-21T15:27:05;32.60;63.00
21184;DHT22;18176;49.502;11.754;2022-07-21T15:31:03;33.00;62.50
21184;DHT22;18176;49.502;11.754;2022-07-21T15:35:02;32.70;61.40
21184;DHT22;18176;49.502;11.754;2022-07-21T15:39:00;31.70;65.10
21184;DHT22;18176;49.502;11.754;2022-07-21T15:42:57;30.70;66.20
21184;DHT22;18176;49.502;11.754;2022-07-21T15:46:54;30.00;68.10
21184;DHT22;18176;49.502;11.754;2022-07-21T15:50:51;29.40;69.30
21184;DHT22;18176;49.502;11.754;2022-07-21T15:54:48;29.00;71.60
21184;DHT22;18176;49.502;11.754;2022-07-21T15:59:01;30.40;69.20
21184;DHT22;18176;49.502;11.754;2022-07-21T16:03:16;33.00;64.70
21184;DHT22;18176;49.502;11.754;2022-07-21T16:07:14;33.00;60.50
21184;DHT22;18176;49.502;11.754;2022-07-21T16:11:11;32.10;63.30
21184;DHT22;18176;49.502;11.754;2022-07-21T16:15:11;31.00;64.40
21184;DHT22;18176;49.502;11.754;2022-07-21T16:19:08;30.00;66.80
21184;DHT22;18176;49.502;11.754;2022-07-21T16:23:06;30.40;67.20
21184;DHT22;18176;49.502;11.754;2022-07-21T16:27:03;31.00;65.40
21184;DHT22;18176;49.502;11.754;2022-07-21T16:31:02;31.80;63.70
21184;DHT22;18176;49.502;11.754;2022-07-21T16:34:59;31.90;63.00
21184;DHT22;18176;49.502;11.754;2022-07-21T16:38:56;30.90;63.50
21184;DHT22;18176;49.502;11.754;2022-07-21T16:42:53;29.90;65.60
21184;DHT22;18176;49.502;11.754;2022-07-21T16:46:50;29.40;67.70
21184;DHT22;18176;49.502;11.754;2022-07-21T16:50:48;30.20;66.00
21184;DHT22;18176;49.502;11.754;2022-07-21T16:54:45;31.40;64.70
21184;DHT22;18176;49.502;11.754;2022-07-21T16:58:43;31.90;62.10
21184;DHT22;18176;49.502;11.754;2022-07-21T17:02:40;31.50;62.40
21184;DHT22;18176;49.502;11.754;2022-07-21T17:06:38;31.00;62.00
21184;DHT22;18176;49.502;11.754;2022-07-21T17:10:35;31.30;62.00
21184;DHT22;18176;49.502;11.754;2022-07-21T17:14:32;30.60;61.50
21184;DHT22;18176;49.502;11.754;2022-07-21T17:18:31;30.60;61.80
21184;DHT22;18176;49.502;11.754;2022-07-21T17:22:29;30.70;61.30
21184;DHT22;18176;49.502;11.754;2022-07-21T17:26:26;31.30;60.20
21184;DHT22;18176;49.502;11.754;2022-07-21T17:30:23;31.60;59.50
21184;DHT22;18176;49.502;11.754;2022-07-21T17:34:20;32.10;59.20
21184;DHT22;18176;49.502;11.754;2022-07-21T17:38:17;32.60;57.10
21184;DHT22;18176;49.502;11.754;2022-07-21T17:42:16;32.10;58.00
21184;DHT22;18176;49.502;11.754;2022-07-21T17:46:13;31.50;57.60
21184;DHT22;18176;49.502;11.754;2022-07-21T17:50:12;31.00;58.40
21184;DHT22;18176;49.502;11.754;2022-07-21T17:54:10;30.50;59.10
21184;DHT22;18176;49.502;11.754;2022-07-21T17:58:06;30.30;60.40
21184;DHT22;18176;49.502;11.754;2022-07-21T18:02:24;30.00;60.00
21184;DHT22;18176;49.502;11.754;2022-07-21T18:06:22;29.50;61.70
21184;DHT22;18176;49.502;11.754;2022-07-21T18:10:20;29.20;63.30
21184;DHT22;18176;49.502;11.754;2022-07-21T18:14:17;28.90;63.40
21184;DHT22;18176;49.502;11.754;2022-07-21T18:18:14;28.70;63.70
21184;DHT22;18176;49.502;11.754;2022-07-21T18:22:11;28.50;64.40
21184;DHT22;18176;49.502;11.754;2022-07-21T18:26:08;28.20;65.10
21184;DHT22;18176;49.502;11.754;2022-07-21T18:30:06;28.00;66.00
21184;DHT22;18176;49.502;11.754;2022-07-21T18:34:09;27.80;67.40
21184;DHT22;18176;49.502;11.754;2022-07-21T18:38:07;27.50;69.00
21184;DHT22;18176;49.502;11.754;2022-07-21T18:42:04;27.20;68.70
21184;DHT22;18176;49.502;11.754;2022-07-21T18:46:08;26.90;69.90
21184;DHT22;18176;49.502;11.754;2022-07-21T18:50:07;26.60;71.40
21184;DHT22;18176;49.502;11.754;2022-07-21T18:54:05;26.40;73.10
21184;DHT22;18176;49.502;11.754;2022-07-21T18:58:09;26.10;74.70
21184;DHT22;18176;49.502;11.754;2022-07-21T19:02:06;25.70;76.30
21184;DHT22;18176;49.502;11.754;2022-07-21T19:06:03;25.40;77.90
21184;DHT22;18176;49.502;11.754;2022-07-21T19:10:01;25.10;80.40
21184;DHT22;18176;49.502;11.754;2022-07-21T19:13:58;24.80;81.80
21184;DHT22;18176;49.502;11.754;2022-07-21T19:17:55;24.50;83.50
21184;DHT22;18176;49.502;11.754;2022-07-21T19:21:54;24.30;84.90
21184;DHT22;18176;49.502;11.754;2022-07-21T19:25:51;24.00;86.80
21184;DHT22;18176;49.502;11.754;2022-07-21T19:29:49;23.80;88.20
21184;DHT22;18176;49.502;11.754;2022-07-21T19:33:46;23.60;90.00
21184;DHT22;18176;49.502;11.754;2022-07-21T19:37:43;23.40;90.10
21184;DHT22;18176;49.502;11.754;2022-07-21T19:41:40;23.20;90.40
21184;DHT22;18176;49.502;11.754;2022-07-21T19:45:37;23.10;90.80
21184;DHT22;18176;49.502;11.754;2022-07-21T19:49:34;22.90;91.50
21184;DHT22;18176;49.502;11.754;2022-07-21T19:53:32;22.80;92.20
21184;DHT22;18176;49.502;11.754;2022-07-21T19:57:31;22.70;92.60
21184;DHT22;18176;49.502;11.754;2022-07-21T20:01:28;22.50;93.10
21184;DHT22;18176;49.502;11.754;2022-07-21T20:05:26;22.40;93.50
21184;DHT22;18176;49.502;11.754;2022-07-21T20:09:23;22.20;93.70
21184;DHT22;18176;49.502;11.754;2022-07-21T20:13:20;22.10;94.00
21184;DHT22;18176;49.502;11.754;2022-07-21T20:17:17;22.00;94.60
21184;DHT22;18176;49.502;11.754;2022-07-21T20:21:27;21.90;94.70
21184;DHT22;18176;49.502;11.754;2022-07-21T20:25:24;21.80;95.00
21184;DHT22;18176;49.502;11.754;2022-07-21T20:29:21;21.60;95.80
21184;DHT22;18176;49.502;11.754;2022-07-21T20:33:18;21.50;96.40
21184;DHT22;18176;49.502;11.754;2022-07-21T20:37:15;21.50;96.90
21184;DHT22;18176;49.502;11.754;2022-07-21T20:41:12;21.40;97.60
21184;DHT22;18176;49.502;11.754;2022-07-21T20:45:10;21.20;97.50
21184;DHT22;18176;49.502;11.754;2022-07-21T20:49:08;21.10;97.90
21184;DHT22;18176;49.502;11.754;2022-07-21T20:53:09;21.00;98.50
21184;DHT22;18176;49.502;11.754;2022-07-21T20:57:28;20.90;99.20
21184;DHT22;18176;49.502;11.754;2022-07-21T21:01:25;20.80;99.70
21184;DHT22;18176;49.502;11.754;2022-07-21T21:05:23;20.70;99.90
21184;DHT22;18176;49.502;11.754;2022-07-21T21:09:20;20.60;99.90
21184;DHT22;18176;49.502;11.754;2022-07-21T21:13:17;20.50;99.90
21184;DHT22;18176;49.502;11.754;2022-07-21T21:17:14;20.40;99.90
21184;DHT22;18176;49.502;11.754;2022-07-21T21:21:11;20.30;99.90
21184;DHT22;18176;49.502;11.754;2022-07-21T21:25:09;20.20;99.90
21184;DHT22;18176;49.502;11.754;2022-07-21T21:29:06;20.10;99.90
21184;DHT22;18176;49.502;11.754;2022-07-21T21:33:03;20.00;99.90
21184;DHT22;18176;49.502;11.754;2022-07-21T21:37:00;19.90;99.90
21184;DHT22;18176;49.502;11.754;2022-07-21T21:40:57;19.80;99.90
21184;DHT22;18176;49.502;11.754;2022-07-21T21:44:54;19.70;99.90
21184;DHT22;18176;49.502;11.754;2022-07-21T21:48:52;19.60;99.90
21184;DHT22;18176;49.502;11.754;2022-07-21T21:52:49;19.50;99.90
21184;DHT22;18176;49.502;11.754;2022-07-21T21:56:46;19.50;99.90
21184;DHT22;18176;49.502;11.754;2022-07-21T22:00:44;19.40;99.90
21184;DHT22;18176;49.502;11.754;2022-07-21T22:04:41;19.30;99.90
21184;DHT22;18176;49.502;11.754;2022-07-21T22:08:38;19.20;99.90
21184;DHT22;18176;49.502;11.754;2022-07-21T22:12:35;19.20;99.90
21184;DHT22;18176;49.502;11.754;2022-07-21T22:16:35;19.10;99.90
21184;DHT22;18176;49.502;11.754;2022-07-21T22:20:34;19.00;99.90
21184;DHT22;18176;49.502;11.754;2022-07-21T22:24:31;18.90;99.90
21184;DHT22;18176;49.502;11.754;2022-07-21T22:28:28;18.80;99.90
21184;DHT22;18176;49.502;11.754;2022-07-21T22:32:25;18.80;99.90
21184;DHT22;18176;49.502;11.754;2022-07-21T22:36:22;18.70;99.90
21184;DHT22;18176;49.502;11.754;2022-07-21T22:40:22;18.60;99.90
21184;DHT22;18176;49.502;11.754;2022-07-21T22:44:20;18.60;99.90
21184;DHT22;18176;49.502;11.754;2022-07-21T22:48:17;18.50;99.90
21184;DHT22;18176;49.502;11.754;2022-07-21T22:52:14;18.40;99.90
21184;DHT22;18176;49.502;11.754;2022-07-21T22:56:11;18.30;99.90
21184;DHT22;18176;49.502;11.754;2022-07-21T23:00:09;18.30;99.90
21184;DHT22;18176;49.502;11.754;2022-07-21T23:04:06;18.20;99.90
21184;DHT22;18176;49.502;11.754;2022-07-21T23:08:04;18.20;99.90
21184;DHT22;18176;49.502;11.754;2022-07-21T23:12:01;18.10;99.90
21184;DHT22;18176;49.502;11.754;2022-07-21T23:15:58;18.10;99.90
21184;DHT22;18176;49.502;11.754;2022-07-21T23:19:55;18.10;99.90
21184;DHT22;18176;49.502;11.754;2022-07-21T23:23:52;18.10;99.90
21184;DHT22;18176;49.502;11.754;2022-07-21T23:27:49;18.00;99.90
21184;DHT22;18176;49.502;11.754;2022-07-21T23:31:46;17.90;99.90
21184;DHT22;18176;49.502;11.754;2022-07-21T23:35:44;17.80;99.90
21184;DHT22;18176;49.502;11.754;2022-07-21T23:39:41;17.70;99.90
21184;DHT22;18176;49.502;11.754;2022-07-21T23:43:38;17.70;99.90
21184;DHT22;18176;49.502;11.754;2022-07-21T23:47:35;17.60;99.90
21184;DHT22;18176;49.502;11.754;2022-07-21T23:51:32;17.60;99.90
21184;DHT22;18176;49.502;11.754;2022-07-21T23:55:29;17.60;99.90
21184;DHT22;18176;49.502;11.754;2022-07-21T23:59:27;17.50;99.90
